createdAt,value
2023-03-06T00:00:55.981Z,95997.56
2023-03-06T00:03:23.335Z,96003.56
2023-03-06T00:05:50.633Z,95999.22
2023-03-06T00:08:17.453Z,96000.91
2023-03-06T00:10:44.380Z,95991.25
2023-03-06T00:13:19.039Z,95994.34
2023-03-06T00:15:47.725Z,95993.38
2023-03-06T00:18:16.152Z,95998.00
2023-03-06T00:20:44.361Z,95988.66
2023-03-06T00:23:11.886Z,95982.78
2023-03-06T00:25:44.585Z,95984.91
2023-03-06T00:28:14.645Z,95984.34
2023-03-06T00:30:42.210Z,95982.81
2023-03-06T00:33:08.974Z,95977.81
2023-03-06T00:35:38.596Z,95975.44
2023-03-06T00:38:05.357Z,95964.97
2023-03-06T00:40:33.027Z,95961.44
2023-03-06T00:43:00.130Z,95966.91
2023-03-06T00:45:27.102Z,95971.25
2023-03-06T00:47:54.019Z,95965.09
2023-03-06T00:50:20.909Z,95969.41
2023-03-06T00:52:47.694Z,95957.94
2023-03-06T00:55:14.513Z,95964.97
2023-03-06T00:57:41.346Z,95959.47
2023-03-06T01:00:11.128Z,95960.31
2023-03-06T01:02:38.229Z,95950.50
2023-03-06T01:05:05.785Z,95948.38
2023-03-06T01:07:36.294Z,95959.03
2023-03-06T01:10:05.790Z,95946.56
2023-03-06T01:12:32.555Z,95940.25
2023-03-06T01:14:59.575Z,95938.44
2023-03-06T01:17:26.480Z,95935.63
2023-03-06T01:19:53.246Z,95938.44
2023-03-06T01:22:20.048Z,95937.47
2023-03-06T01:24:46.842Z,95934.78
2023-03-06T01:27:14.452Z,95928.66
2023-03-06T01:29:43.748Z,95930.31
2023-03-06T01:32:10.525Z,95920.50
2023-03-06T01:34:37.296Z,95916.19
2023-03-06T01:37:04.083Z,95911.69
2023-03-06T01:39:31.480Z,95917.00
2023-03-06T01:41:58.280Z,95925.16
2023-03-06T01:44:25.073Z,95914.09
2023-03-06T01:46:51.880Z,95904.59
2023-03-06T01:49:34.252Z,95904.06
2023-03-06T01:52:10.836Z,95899.88
2023-03-06T01:54:56.918Z,95893.19
2023-03-06T01:57:29.135Z,95902.00
2023-03-06T02:00:15.045Z,95882.16
2023-03-06T02:02:47.633Z,95890.97
2023-03-06T02:05:14.875Z,95886.78
2023-03-06T02:07:44.035Z,95886.38
2023-03-06T02:10:14.965Z,95881.69
2023-03-06T02:12:43.667Z,95876.81
2023-03-06T02:15:13.953Z,95870.13
2023-03-06T02:17:44.499Z,95861.31
2023-03-06T02:20:26.294Z,95857.28
2023-03-06T02:23:32.152Z,95857.69
2023-03-06T02:25:59.733Z,95856.84
2023-03-06T02:28:26.926Z,95857.00
2023-03-06T02:30:55.632Z,95851.84
2023-03-06T02:33:26.678Z,95853.66
2023-03-06T02:35:58.851Z,95846.53
2023-03-06T02:38:33.388Z,95843.00
2023-03-06T02:41:03.969Z,95849.19
2023-03-06T02:43:37.177Z,95852.81
2023-03-06T02:46:04.281Z,95839.41
2023-03-06T02:48:31.107Z,95844.00
2023-03-06T02:50:57.856Z,95842.50
2023-03-06T02:53:25.914Z,95841.13
2023-03-06T02:55:52.765Z,95835.38
2023-03-06T02:58:20.839Z,95841.97
2023-03-06T03:00:49.995Z,95844.97
2023-03-06T03:03:18.066Z,95837.13
2023-03-06T03:05:44.923Z,95828.31
2023-03-06T03:08:20.240Z,95834.63
2023-03-06T03:10:48.338Z,95832.78
2023-03-06T03:13:15.417Z,95834.63
2023-03-06T03:15:42.463Z,95826.66
2023-03-06T03:18:11.549Z,95812.81
2023-03-06T03:20:42.845Z,95821.06
2023-03-06T03:23:09.834Z,95827.22
2023-03-06T03:25:36.613Z,95822.06
2023-03-06T03:28:04.083Z,95818.72
2023-03-06T03:30:31.182Z,95820.53
2023-03-06T03:32:58.033Z,95828.50
2023-03-06T03:35:25.448Z,95815.22
2023-03-06T03:37:54.538Z,95815.22
2023-03-06T03:40:21.462Z,95819.69
2023-03-06T03:42:49.951Z,95810.75
2023-03-06T03:45:17.047Z,95810.75
2023-03-06T03:47:43.916Z,95809.91
2023-03-06T03:50:12.501Z,95806.28
2023-03-06T03:52:40.053Z,95810.75
2023-03-06T03:55:07.848Z,95816.06
2023-03-06T03:57:34.854Z,95800.97
2023-03-06T04:00:01.693Z,95797.47
2023-03-06T04:02:40.480Z,95795.66
2023-03-06T04:05:18.348Z,95791.28
2023-03-06T04:07:46.251Z,95800.25
2023-03-06T04:10:14.826Z,95789.63
2023-03-06T04:12:42.182Z,95789.63
2023-03-06T04:15:11.369Z,95784.47
2023-03-06T04:17:38.970Z,95787.13
2023-03-06T04:20:10.357Z,95779.16
2023-03-06T04:22:38.006Z,95779.16
2023-03-06T04:25:05.556Z,95770.50
2023-03-06T04:27:32.365Z,95775.97
2023-03-06T04:29:59.288Z,95775.13
2023-03-06T04:32:26.278Z,95763.81
2023-03-06T04:34:53.094Z,95759.63
2023-03-06T04:37:24.199Z,95763.41
2023-03-06T04:39:51.901Z,95761.59
2023-03-06T04:42:19.118Z,95763.41
2023-03-06T04:44:46.068Z,95755.44
2023-03-06T04:47:13.102Z,95761.75
2023-03-06T04:49:40.148Z,95762.59
2023-03-06T04:52:07.446Z,95763.41
2023-03-06T04:54:34.192Z,95758.94
2023-03-06T04:57:01.156Z,95764.13
2023-03-06T04:59:27.976Z,95758.94
2023-03-06T05:01:55.106Z,95759.75
2023-03-06T05:04:21.888Z,95752.66
2023-03-06T05:06:49.832Z,95756.97
2023-03-06T05:09:16.718Z,95763.81
2023-03-06T05:11:43.508Z,95764.66
2023-03-06T05:14:10.272Z,95760.31
2023-03-06T05:16:37.057Z,95755.16
2023-03-06T05:19:03.895Z,95756.16
2023-03-06T05:21:30.669Z,95761.59
2023-03-06T05:23:57.632Z,95760.75
2023-03-06T05:26:24.471Z,95758.09
2023-03-06T05:28:51.271Z,95753.78
2023-03-06T05:31:18.172Z,95742.31
2023-03-06T05:33:45.034Z,95749.31
2023-03-06T05:36:12.082Z,95740.50
2023-03-06T05:38:38.876Z,95740.34
2023-03-06T05:41:05.687Z,95747.34
2023-03-06T05:43:32.449Z,95738.38
2023-03-06T05:46:04.571Z,95741.03
2023-03-06T05:48:32.192Z,95739.91
2023-03-06T05:51:00.956Z,95738.09
2023-03-06T05:53:29.224Z,95739.59
2023-03-06T05:56:11.463Z,95735.72
2023-03-06T05:58:38.670Z,95734.59
2023-03-06T06:01:15.150Z,95738.38
2023-03-06T06:03:42.169Z,95740.75
2023-03-06T06:06:11.527Z,95743.53
2023-03-06T06:08:38.375Z,95742.88
2023-03-06T06:11:07.456Z,95740.34
2023-03-06T06:13:34.646Z,95740.34
2023-03-06T06:16:16.541Z,95743.44
2023-03-06T06:18:43.834Z,95744.16
2023-03-06T06:21:13.490Z,95745.97
2023-03-06T06:23:40.843Z,95742.31
2023-03-06T06:26:09.843Z,95745.97
2023-03-06T06:28:37.312Z,95740.66
2023-03-06T06:31:13.892Z,95752.25
2023-03-06T06:33:41.296Z,95746.81
2023-03-06T06:36:19.974Z,95747.91
2023-03-06T06:38:47.572Z,95749.47
2023-03-06T06:44:05.105Z,95749.47
2023-03-06T06:47:19.298Z,95747.63
2023-03-06T06:49:20.361Z,95750.97
2023-03-06T06:51:47.202Z,95755.16
2023-03-06T06:54:14.238Z,95753.06
2023-03-06T06:56:41.070Z,95755.41
2023-03-06T06:59:16.704Z,95758.75
2023-03-06T07:01:44.505Z,95757.75
2023-03-06T07:04:13.627Z,95758.47
2023-03-06T07:06:41.731Z,95762.50
2023-03-06T07:09:08.753Z,95771.84
2023-03-06T07:11:37.082Z,95768.88
2023-03-06T07:14:03.861Z,95768.44
2023-03-06T07:16:30.659Z,95771.63
2023-03-06T07:18:57.416Z,95775.66
2023-03-06T07:21:24.192Z,95784.16
2023-03-06T07:23:51.008Z,95783.03
2023-03-06T07:26:17.810Z,95781.06
2023-03-06T07:28:52.397Z,95785.41
2023-03-06T07:31:26.149Z,95779.53
2023-03-06T07:33:54.475Z,95780.09
2023-03-06T07:36:23.443Z,95783.72
2023-03-06T07:38:50.238Z,95785.25
2023-03-06T07:41:20.454Z,95789.56
2023-03-06T07:43:49.267Z,95780.75
2023-03-06T07:46:17.825Z,95785.25
2023-03-06T07:48:44.867Z,95785.09
2023-03-06T07:51:18.753Z,95783.41
2023-03-06T07:53:45.755Z,95781.47
2023-03-06T07:56:13.426Z,95778.66
2023-03-06T07:58:43.486Z,95786.63
2023-03-06T08:01:20.675Z,95785.63
2023-03-06T08:03:49.871Z,95781.84
2023-03-06T08:06:21.709Z,95787.16
2023-03-06T08:08:50.292Z,95792.31
2023-03-06T08:11:20.862Z,95782.38
2023-03-06T08:13:48.785Z,95792.56
2023-03-06T08:16:17.619Z,95787.91
2023-03-06T08:18:46.399Z,95783.28
2023-03-06T08:21:20.659Z,95789.59
2023-03-06T08:23:47.980Z,95795.75
2023-03-06T08:26:21.637Z,95788.75
2023-03-06T08:28:50.956Z,95794.94
2023-03-06T08:31:38.020Z,95800.53
2023-03-06T08:34:12.442Z,95794.22
2023-03-06T08:36:39.474Z,95797.59
2023-03-06T08:39:07.527Z,95806.22
2023-03-06T08:41:36.539Z,95803.56
2023-03-06T08:44:04.164Z,95797.25
2023-03-06T08:46:31.949Z,95801.75
2023-03-06T08:48:59.087Z,95800.09
2023-03-06T08:51:26.307Z,95800.09
2023-03-06T08:53:53.190Z,95806.22
2023-03-06T08:56:28.982Z,95812.69
2023-03-06T08:58:59.016Z,95808.22
2023-03-06T09:01:29.571Z,95810.00
2023-03-06T09:04:00.308Z,95804.69
2023-03-06T09:06:31.143Z,95808.22
2023-03-06T09:08:58.511Z,95810.72
2023-03-06T09:11:27.174Z,95808.06
2023-03-06T09:13:55.252Z,95813.22
2023-03-06T09:16:24.203Z,95817.41
2023-03-06T09:18:52.813Z,95806.78
2023-03-06T09:21:21.488Z,95814.75
2023-03-06T09:23:48.766Z,95816.56
2023-03-06T09:26:15.602Z,95814.75
2023-03-06T09:28:42.442Z,95816.56
2023-03-06T09:31:17.300Z,95815.03
2023-03-06T09:33:44.668Z,95819.38
2023-03-06T09:36:20.814Z,95819.69
2023-03-06T09:38:49.711Z,95822.88
2023-03-06T09:41:35.788Z,95825.00
2023-03-06T09:44:28.597Z,95819.53
2023-03-06T09:47:21.286Z,95830.16
2023-03-06T09:50:13.928Z,95826.91
2023-03-06T09:52:56.877Z,95827.88
2023-03-06T09:55:32.765Z,95822.44
2023-03-06T09:58:23.634Z,95827.59
2023-03-06T10:01:05.555Z,95819.31
2023-03-06T10:03:36.662Z,95822.19
2023-03-06T10:06:37.526Z,95824.72
2023-03-06T10:09:14.916Z,95827.75
2023-03-06T10:11:56.910Z,95822.81
2023-03-06T10:14:38.738Z,95823.34
2023-03-06T10:17:06.662Z,95821.75
2023-03-06T10:19:40.009Z,95823.25
2023-03-06T10:22:39.763Z,95814.97
2023-03-06T10:25:29.143Z,95822.38
2023-03-06T10:28:18.529Z,95821.75
2023-03-06T10:31:18.788Z,95817.78
2023-03-06T10:33:51.248Z,95818.50
2023-03-06T10:36:20.776Z,95824.06
2023-03-06T10:38:49.026Z,95823.31
2023-03-06T10:41:31.333Z,95821.00
2023-03-06T10:44:00.777Z,95818.44
2023-03-06T10:46:36.354Z,95821.91
2023-03-06T10:49:14.079Z,95823.91
2023-03-06T10:51:57.231Z,95812.44
2023-03-06T10:54:24.438Z,95833.09
2023-03-06T10:56:51.245Z,95823.16
2023-03-06T10:59:28.124Z,95813.31
2023-03-06T11:01:58.408Z,95816.50
2023-03-06T11:04:32.503Z,95809.34
2023-03-06T11:07:13.956Z,95808.53
2023-03-06T11:09:44.358Z,95807.53
2023-03-06T11:12:33.602Z,95802.31
2023-03-06T11:15:17.511Z,95804.22
2023-03-06T11:18:04.858Z,95808.94
2023-03-06T11:20:52.498Z,95812.78
2023-03-06T11:23:44.363Z,95807.97
2023-03-06T11:26:17.285Z,95798.34
2023-03-06T11:29:08.280Z,95797.03
2023-03-06T11:32:22.068Z,95795.56
2023-03-06T11:34:59.350Z,95805.44
2023-03-06T11:37:32.212Z,95793.44
2023-03-06T11:40:15.067Z,95791.63
2023-03-06T11:43:05.898Z,95782.31
2023-03-06T11:45:46.627Z,95784.78
2023-03-06T11:48:19.061Z,95779.50
2023-03-06T11:50:57.460Z,95780.00
2023-03-06T11:53:35.319Z,95783.69
2023-03-06T11:56:18.906Z,95781.19
2023-03-06T11:59:32.519Z,95775.34
2023-03-06T12:02:39.538Z,95771.97
2023-03-06T12:05:26.780Z,95776.16
2023-03-06T12:08:34.917Z,95762.97
2023-03-06T12:11:21.131Z,95771.16
2023-03-06T12:14:17.139Z,95769.47
2023-03-06T12:17:29.006Z,95760.78
2023-03-06T12:20:25.842Z,95765.16
2023-03-06T12:23:18.512Z,95767.81
2023-03-06T12:26:21.612Z,95759.97
2023-03-06T12:29:18.808Z,95768.13
2023-03-06T12:31:51.362Z,95755.16
2023-03-06T12:35:16.088Z,95765.28
2023-03-06T12:38:02.085Z,95755.16
2023-03-06T12:41:12.715Z,95759.81
2023-03-06T12:44:07.128Z,95747.84
2023-03-06T12:46:42.623Z,95754.31
2023-03-06T12:49:31.811Z,95740.31
2023-03-06T12:52:00.564Z,95747.84
2023-03-06T12:54:35.168Z,95741.81
2023-03-06T12:57:02.485Z,95733.50
2023-03-06T12:59:50.274Z,95742.66
2023-03-06T13:02:48.870Z,95735.47
2023-03-06T13:05:56.661Z,95747.84
2023-03-06T13:09:06.236Z,95741.00
2023-03-06T13:11:58.718Z,95736.47
2023-03-06T13:14:54.621Z,95726.16
2023-03-06T13:17:28.654Z,95730.34
2023-03-06T13:20:13.906Z,95730.66
2023-03-06T13:22:46.814Z,95740.50
2023-03-06T13:25:19.574Z,95741.50
2023-03-06T13:27:52.660Z,95730.97
2023-03-06T13:30:46.606Z,95731.66
2023-03-06T13:33:39.290Z,95743.44
2023-03-06T13:36:28.732Z,95739.31
2023-03-06T13:38:57.676Z,95728.47
2023-03-06T13:41:27.084Z,95735.31
2023-03-06T13:43:57.382Z,95733.31
2023-03-06T13:46:31.322Z,95728.81
2023-03-06T13:49:08.849Z,95735.00
2023-03-06T13:51:42.864Z,95738.81
2023-03-06T13:54:51.683Z,95734.09
2023-03-06T13:57:47.996Z,95736.28
2023-03-06T14:00:46.501Z,95720.63
2023-03-06T14:03:25.125Z,95717.59
2023-03-06T14:05:52.661Z,95719.41
2023-03-06T14:08:28.089Z,95719.59
2023-03-06T14:11:17.857Z,95721.41
2023-03-06T14:13:56.796Z,95712.28
2023-03-06T14:16:29.197Z,95708.94
2023-03-06T14:19:00.614Z,95719.28
2023-03-06T14:21:45.601Z,95711.63
2023-03-06T14:24:18.853Z,95705.97
2023-03-06T14:26:50.199Z,95698.63
2023-03-06T14:29:26.752Z,95704.78
2023-03-06T14:31:59.409Z,95707.00
2023-03-06T14:34:29.697Z,95709.31
2023-03-06T14:37:01.411Z,95708.00
2023-03-06T14:39:38.185Z,95702.34
2023-03-06T14:42:21.858Z,95708.00
2023-03-06T14:45:13.201Z,95712.69
2023-03-06T14:47:39.989Z,95701.19
2023-03-06T14:50:27.323Z,95707.47
2023-03-06T14:53:05.302Z,95707.13
2023-03-06T14:55:35.176Z,95700.47
2023-03-06T14:58:13.340Z,95700.44
2023-03-06T15:00:45.413Z,95702.97
2023-03-06T15:03:25.558Z,95698.94
2023-03-06T15:05:53.396Z,95702.28
2023-03-06T15:08:28.477Z,95701.75
2023-03-06T15:10:58.119Z,95707.09
2023-03-06T15:13:28.640Z,95709.25
2023-03-06T15:16:05.889Z,95705.56
2023-03-06T15:18:38.688Z,95712.88
2023-03-06T15:21:22.687Z,95710.03
2023-03-06T15:23:52.954Z,95713.31
2023-03-06T15:26:32.514Z,95704.16
2023-03-06T15:29:22.855Z,95704.63
2023-03-06T15:31:49.711Z,95705.28
2023-03-06T15:34:23.373Z,95713.59
2023-03-06T15:36:56.398Z,95708.63
2023-03-06T15:39:34.814Z,95704.59
2023-03-06T15:42:23.323Z,95704.22
2023-03-06T15:44:56.471Z,95705.91
2023-03-06T15:47:24.332Z,95704.91
2023-03-06T15:49:53.016Z,95708.41
2023-03-06T15:52:21.528Z,95705.91
2023-03-06T15:54:48.552Z,95712.38
2023-03-06T15:57:31.102Z,95716.31
2023-03-06T16:00:00.215Z,95704.84
2023-03-06T16:02:27.438Z,95706.81
2023-03-06T16:04:54.453Z,95705.13
2023-03-06T16:07:21.278Z,95712.31
2023-03-06T16:09:48.486Z,95720.47
2023-03-06T16:12:20.884Z,95712.94
2023-03-06T16:14:48.851Z,95716.56
2023-03-06T16:17:16.497Z,95722.06
2023-03-06T16:19:44.171Z,95715.38
2023-03-06T16:22:11.046Z,95722.69
2023-03-06T16:24:37.953Z,95720.34
2023-03-06T16:27:04.948Z,95726.28
2023-03-06T16:29:32.031Z,95724.78
2023-03-06T16:32:00.666Z,95715.59
2023-03-06T16:34:27.547Z,95728.38
2023-03-06T16:36:54.367Z,95725.50
2023-03-06T16:39:23.638Z,95719.00
2023-03-06T16:41:50.950Z,95724.63
2023-03-06T16:44:18.059Z,95734.56
2023-03-06T16:46:47.370Z,95729.56
2023-03-06T16:49:18.025Z,95735.19
2023-03-06T16:51:45.257Z,95728.22
2023-03-06T16:54:12.809Z,95741.63
2023-03-06T16:56:39.807Z,95733.81
2023-03-06T16:59:06.634Z,95737.63
2023-03-06T17:01:33.863Z,95735.25
2023-03-06T17:04:00.726Z,95742.56
2023-03-06T17:06:27.921Z,95739.91
2023-03-06T17:08:55.094Z,95744.22
2023-03-06T17:11:21.972Z,95737.91
2023-03-06T17:13:50.593Z,95746.75
2023-03-06T17:16:18.017Z,95750.25
2023-03-06T17:18:46.310Z,95742.28
2023-03-06T17:21:17.078Z,95749.25
2023-03-06T17:23:44.386Z,95750.25
2023-03-06T17:26:20.639Z,95740.56
2023-03-06T17:28:47.644Z,95749.41
2023-03-06T17:31:15.849Z,95756.41
2023-03-06T17:33:42.703Z,95759.59
2023-03-06T17:36:10.141Z,95760.25
2023-03-06T17:38:37.501Z,95766.28
2023-03-06T17:41:06.078Z,95765.28
2023-03-06T17:43:33.130Z,95767.78
2023-03-06T17:46:05.101Z,95760.13
2023-03-06T17:48:32.305Z,95765.28
2023-03-06T17:50:59.109Z,95764.44
2023-03-06T17:53:26.737Z,95763.63
2023-03-06T17:55:54.525Z,95759.81
2023-03-06T17:58:21.379Z,95762.31
2023-03-06T18:00:48.211Z,95765.53
2023-03-06T18:03:15.217Z,95764.34
2023-03-06T18:05:42.073Z,95769.38
2023-03-06T18:08:10.138Z,95765.56
2023-03-06T18:10:41.454Z,95772.56
2023-03-06T18:13:10.090Z,95780.38
2023-03-06T18:15:41.480Z,95774.69
2023-03-06T18:18:08.874Z,95781.16
2023-03-06T18:20:41.277Z,95778.13
2023-03-06T18:23:08.108Z,95771.28
2023-03-06T18:25:35.238Z,95765.44
2023-03-06T18:28:02.065Z,95772.06
2023-03-06T18:30:28.979Z,95770.53
2023-03-06T18:32:55.748Z,95768.16
2023-03-06T18:35:22.578Z,95771.00
2023-03-06T18:37:49.425Z,95769.31
2023-03-06T18:40:16.296Z,95768.34
2023-03-06T18:42:43.147Z,95765.66
2023-03-06T18:45:11.448Z,95761.34
2023-03-06T18:47:39.402Z,95768.47
2023-03-06T18:50:07.111Z,95770.44
2023-03-06T18:52:34.765Z,95769.63
2023-03-06T18:55:01.619Z,95778.28
2023-03-06T18:57:30.312Z,95779.25
2023-03-06T18:59:57.288Z,95777.44
2023-03-06T19:02:24.111Z,95774.78
2023-03-06T19:04:52.682Z,95762.31
2023-03-06T19:07:20.628Z,95759.66
2023-03-06T19:09:50.842Z,95760.66
2023-03-06T19:12:17.785Z,95757.00
2023-03-06T19:14:44.940Z,95759.53
2023-03-06T19:17:11.786Z,95752.22
2023-03-06T19:19:38.551Z,95754.56
2023-03-06T19:22:05.864Z,95749.91
2023-03-06T19:24:32.618Z,95755.94
2023-03-06T19:26:59.393Z,95754.81
2023-03-06T19:29:26.307Z,95757.31
2023-03-06T19:31:53.198Z,95763.47
2023-03-06T19:34:20.266Z,95760.63
2023-03-06T19:36:49.861Z,95759.66
2023-03-06T19:39:16.655Z,95748.84
2023-03-06T19:41:43.463Z,95748.19
2023-03-06T19:44:12.109Z,95752.50
2023-03-06T19:46:40.514Z,95757.66
2023-03-06T19:49:11.957Z,95750.53
2023-03-06T19:51:38.836Z,95755.84
2023-03-06T19:54:05.816Z,95754.00
2023-03-06T19:56:33.542Z,95747.03
2023-03-06T19:59:00.415Z,95751.34
2023-03-06T20:01:28.093Z,95740.03
2023-03-06T20:03:58.751Z,95749.03
2023-03-06T20:06:33.539Z,95745.66
2023-03-06T20:09:03.287Z,95743.84
2023-03-06T20:11:30.949Z,95742.19
2023-03-06T20:14:00.472Z,95745.84
2023-03-06T20:16:29.484Z,95740.66
2023-03-06T20:18:58.770Z,95744.16
2023-03-06T20:21:27.704Z,95735.31
2023-03-06T20:23:56.895Z,95737.97
2023-03-06T20:26:25.543Z,95731.69
2023-03-06T20:28:52.329Z,95725.38
2023-03-06T20:31:22.607Z,95726.38
2023-03-06T20:33:51.987Z,95724.69
2023-03-06T20:36:27.367Z,95725.00
2023-03-06T20:38:54.992Z,95726.84
2023-03-06T20:41:25.842Z,95729.63
2023-03-06T20:43:53.272Z,95717.16
2023-03-06T20:46:22.448Z,95720.16
2023-03-06T20:48:51.667Z,95720.28
2023-03-06T20:51:21.444Z,95725.91
2023-03-06T20:53:52.979Z,95721.06
2023-03-06T20:56:24.568Z,95737.19
2023-03-06T20:58:51.972Z,95728.19
2023-03-06T21:01:25.526Z,95729.38
2023-03-06T21:03:52.727Z,95724.53
2023-03-06T21:06:20.806Z,95721.88
2023-03-06T21:08:47.981Z,95720.22
2023-03-06T21:11:15.901Z,95723.88
2023-03-06T21:13:42.791Z,95718.72
2023-03-06T21:16:13.555Z,95718.84
2023-03-06T21:18:40.405Z,95715.22
2023-03-06T21:21:19.177Z,95712.88
2023-03-06T21:23:47.812Z,95706.56
2023-03-06T21:26:18.243Z,95703.22
2023-03-06T21:28:45.418Z,95704.06
2023-03-06T21:31:14.968Z,95692.91
2023-03-06T21:33:42.797Z,95688.56
2023-03-06T21:36:09.959Z,95697.50
2023-03-06T21:38:37.408Z,95690.69
2023-03-06T21:41:17.106Z,95693.81
2023-03-06T21:43:44.220Z,95696.47
2023-03-06T21:46:11.514Z,95689.34
2023-03-06T21:48:38.800Z,95691.16
2023-03-06T21:51:18.168Z,95688.78
2023-03-06T21:53:46.453Z,95685.84
2023-03-06T21:56:15.600Z,95682.19
2023-03-06T21:58:42.493Z,95685.69
2023-03-06T22:01:17.349Z,95682.19
2023-03-06T22:03:44.384Z,95688.16
2023-03-06T22:06:16.910Z,95684.84
2023-03-06T22:08:44.686Z,95683.84
2023-03-06T22:11:18.080Z,95671.56
2023-03-06T22:13:45.554Z,95682.84
2023-03-06T22:16:12.780Z,95668.72
2023-03-06T22:18:40.178Z,95676.88
2023-03-06T22:21:10.591Z,95670.72
2023-03-06T22:23:38.124Z,95672.56
2023-03-06T22:26:08.674Z,95671.69
2023-03-06T22:28:36.002Z,95670.03
2023-03-06T22:31:25.182Z,95676.78
2023-03-06T22:33:57.133Z,95671.31
2023-03-06T22:36:24.592Z,95670.31
2023-03-06T22:38:56.416Z,95669.66
2023-03-06T22:41:25.589Z,95672.31
2023-03-06T22:43:55.935Z,95671.47
2023-03-06T22:46:23.370Z,95666.00
2023-03-06T22:48:50.209Z,95666.84
2023-03-06T22:51:20.115Z,95668.81
2023-03-06T22:53:47.668Z,95661.16
2023-03-06T22:56:18.505Z,95657.19
2023-03-06T22:58:45.789Z,95662.50
2023-03-06T23:01:16.485Z,95661.69
2023-03-06T23:03:46.910Z,95656.38
2023-03-06T23:06:20.499Z,95653.69
2023-03-06T23:08:55.087Z,95649.38
2023-03-06T23:11:23.096Z,95641.41
2023-03-06T23:14:11.907Z,95647.03
2023-03-06T23:16:57.533Z,95642.84
2023-03-06T23:19:42.779Z,95640.50
2023-03-06T23:22:28.104Z,95634.66
2023-03-06T23:25:13.557Z,95638.44
2023-03-06T23:27:41.018Z,95635.94
2023-03-06T23:30:09.358Z,95630.94
2023-03-06T23:32:36.600Z,95621.28
2023-03-06T23:35:03.615Z,95623.13
2023-03-06T23:37:30.448Z,95621.44
2023-03-06T23:39:58.013Z,95615.28
2023-03-06T23:42:24.781Z,95615.44
2023-03-06T23:44:51.933Z,95625.25
2023-03-06T23:47:19.925Z,95618.28
2023-03-06T23:49:46.750Z,95625.38
2023-03-06T23:52:13.513Z,95617.41
2023-03-06T23:54:40.340Z,95613.91
2023-03-06T23:57:07.249Z,95615.75
2023-03-06T23:59:34.049Z,95616.75
